createdAt,value
2024-03-07T00:00:16.251Z,27.20
2024-03-07T00:02:46.613Z,25.73
2024-03-07T00:05:17.128Z,28.77
2024-03-07T00:07:44.287Z,26.93
2024-03-07T00:10:11.456Z,29.65
2024-03-07T00:12:42.177Z,27.52
2024-03-07T00:15:11.834Z,27.73
2024-03-07T00:17:39.929Z,26.08
2024-03-07T00:20:10.652Z,27.23
2024-03-07T00:22:37.593Z,26.75
2024-03-07T00:25:08.057Z,28.25
2024-03-07T00:27:34.696Z,27.95
2024-03-07T00:30:01.477Z,25.98
2024-03-07T00:32:31.147Z,27.20
2024-03-07T00:35:00.525Z,27.60
2024-03-07T00:37:27.141Z,25.63
2024-03-07T00:39:53.733Z,27.38
2024-03-07T00:42:20.531Z,25.10
2024-03-07T00:44:47.885Z,27.17
2024-03-07T00:47:14.503Z,25.58
2024-03-07T00:49:41.333Z,28.20
2024-03-07T00:52:07.986Z,29.70
2024-03-07T00:54:34.964Z,25.60
2024-03-07T00:57:01.590Z,25.83
2024-03-07T00:59:28.204Z,28.38
2024-03-07T01:01:55.013Z,28.23
2024-03-07T01:04:21.665Z,27.48
2024-03-07T01:06:48.559Z,24.42
2024-03-07T01:09:15.957Z,28.35
2024-03-07T01:11:45.296Z,27.35
2024-03-07T01:14:12.812Z,28.15
2024-03-07T01:16:39.437Z,29.67
2024-03-07T01:19:07.290Z,29.08
2024-03-07T01:21:38.022Z,29.60
2024-03-07T01:24:06.109Z,29.58
2024-03-07T01:26:34.930Z,26.63
2024-03-07T01:29:01.691Z,27.02
2024-03-07T01:31:28.979Z,27.60
2024-03-07T01:33:56.012Z,27.17
2024-03-07T01:36:22.966Z,28.00
2024-03-07T01:38:49.974Z,24.75
2024-03-07T01:41:16.876Z,25.58
2024-03-07T01:43:44.475Z,23.58
2024-03-07T01:46:13.842Z,25.60
2024-03-07T01:48:41.646Z,22.98
2024-03-07T01:51:09.886Z,22.48
2024-03-07T01:53:37.184Z,23.80
2024-03-07T01:56:05.210Z,25.88
2024-03-07T01:58:35.073Z,22.67
2024-03-07T02:01:02.039Z,21.98
2024-03-07T02:03:29.208Z,23.17
2024-03-07T02:05:57.115Z,23.02
2024-03-07T02:08:23.780Z,22.65
2024-03-07T02:10:50.720Z,22.53
2024-03-07T02:13:17.639Z,23.13
2024-03-07T02:15:44.740Z,21.02
2024-03-07T02:18:11.979Z,21.75
2024-03-07T02:20:39.208Z,22.45
2024-03-07T02:23:05.913Z,22.50
2024-03-07T02:25:33.393Z,21.48
2024-03-07T02:28:00.211Z,21.75
2024-03-07T02:30:26.872Z,22.02
2024-03-07T02:32:56.589Z,27.17
2024-03-07T02:35:24.688Z,26.37
2024-03-07T02:37:51.753Z,27.38
2024-03-07T02:40:18.501Z,31.15
2024-03-07T02:42:45.148Z,26.35
2024-03-07T02:45:16.372Z,30.00
2024-03-07T02:47:45.324Z,30.55
2024-03-07T02:50:12.612Z,31.10
2024-03-07T02:52:40.228Z,31.48
2024-03-07T02:55:07.348Z,32.63
2024-03-07T02:57:33.962Z,30.17
2024-03-07T03:00:00.863Z,30.85
2024-03-07T03:02:27.487Z,27.83
2024-03-07T03:04:55.709Z,31.70
2024-03-07T03:07:22.387Z,27.08
2024-03-07T03:09:50.109Z,31.77
2024-03-07T03:12:17.198Z,32.03
2024-03-07T03:14:44.607Z,29.15
2024-03-07T03:17:12.393Z,29.52
2024-03-07T03:19:39.228Z,30.30
2024-03-07T03:22:06.106Z,30.08
2024-03-07T03:24:32.734Z,30.05
2024-03-07T03:26:59.466Z,31.67
2024-03-07T03:29:26.309Z,29.38
2024-03-07T03:31:53.047Z,26.38
2024-03-07T03:34:19.744Z,30.27
2024-03-07T03:36:46.332Z,31.07
2024-03-07T03:39:14.627Z,28.67
2024-03-07T03:41:41.664Z,28.77
2024-03-07T03:44:08.900Z,30.67
2024-03-07T03:46:35.640Z,32.53
2024-03-07T03:49:02.415Z,30.73
2024-03-07T03:51:29.328Z,32.17
2024-03-07T03:53:55.984Z,32.53
2024-03-07T03:56:22.974Z,30.27
2024-03-07T03:58:49.811Z,30.42
2024-03-07T04:01:17.543Z,31.40
2024-03-07T04:03:47.828Z,30.15
2024-03-07T04:06:15.158Z,32.28
2024-03-07T04:08:41.946Z,29.55
2024-03-07T04:11:11.631Z,28.33
2024-03-07T04:13:39.381Z,32.60
2024-03-07T04:16:06.258Z,30.77
2024-03-07T04:18:33.636Z,31.08
2024-03-07T04:21:00.543Z,32.88
2024-03-07T04:23:27.432Z,30.67
2024-03-07T04:25:54.323Z,30.17
2024-03-07T04:28:21.747Z,31.75
2024-03-07T04:30:50.507Z,32.45
2024-03-07T04:33:17.330Z,33.03
2024-03-07T04:35:44.143Z,33.30
2024-03-07T04:38:12.736Z,29.10
2024-03-07T04:40:40.299Z,30.85
2024-03-07T04:43:07.035Z,31.35
2024-03-07T04:45:33.665Z,31.17
2024-03-07T04:48:00.646Z,33.17
2024-03-07T04:50:27.758Z,32.10
2024-03-07T04:52:54.584Z,30.70
2024-03-07T04:55:21.157Z,25.73
2024-03-07T04:57:48.289Z,32.30
2024-03-07T05:00:17.749Z,29.65
2024-03-07T05:02:47.750Z,30.15
2024-03-07T05:05:15.331Z,30.50
2024-03-07T05:07:42.831Z,29.30
2024-03-07T05:10:10.137Z,32.70
2024-03-07T05:12:38.158Z,30.27
2024-03-07T05:15:11.391Z,28.27
2024-03-07T05:17:40.329Z,30.33
2024-03-07T05:20:11.373Z,28.40
2024-03-07T05:22:42.940Z,29.92
2024-03-07T05:25:10.575Z,26.70
2024-03-07T05:27:37.458Z,29.23
2024-03-07T05:30:10.067Z,25.85
2024-03-07T05:32:37.420Z,29.15
2024-03-07T05:35:04.879Z,32.03
2024-03-07T05:37:32.898Z,27.13
2024-03-07T05:40:00.871Z,26.10
2024-03-07T05:42:27.586Z,23.90
2024-03-07T05:44:55.423Z,25.00
2024-03-07T05:47:23.274Z,29.00
2024-03-07T05:49:50.099Z,28.88
2024-03-07T05:52:17.060Z,28.47
2024-03-07T05:54:45.213Z,31.60
2024-03-07T05:57:12.904Z,30.40
2024-03-07T05:59:40.175Z,29.27
2024-03-07T06:02:07.096Z,26.23
2024-03-07T06:04:35.153Z,29.40
2024-03-07T06:07:02.161Z,30.77
2024-03-07T06:09:29.278Z,27.77
2024-03-07T06:11:56.138Z,29.20
2024-03-07T06:14:24.534Z,27.45
2024-03-07T06:16:53.245Z,25.63
2024-03-07T06:19:19.998Z,27.67
2024-03-07T06:21:47.317Z,26.92
2024-03-07T06:24:16.594Z,27.98
2024-03-07T06:26:46.935Z,27.38
2024-03-07T06:29:17.407Z,31.27
2024-03-07T06:31:47.387Z,29.05
2024-03-07T06:34:14.321Z,29.55
2024-03-07T06:36:44.128Z,27.17
2024-03-07T06:39:11.829Z,27.23
2024-03-07T06:41:39.317Z,27.13
2024-03-07T06:44:06.167Z,30.08
2024-03-07T06:46:34.792Z,28.85
2024-03-07T06:49:01.958Z,27.52
2024-03-07T06:51:28.913Z,28.67
2024-03-07T06:53:57.547Z,27.50
2024-03-07T06:56:25.982Z,24.75
2024-03-07T06:58:52.803Z,31.85
2024-03-07T07:01:20.860Z,25.15
2024-03-07T07:03:49.183Z,23.45
2024-03-07T07:06:16.682Z,25.08
2024-03-07T07:08:43.537Z,26.30
2024-03-07T07:11:13.075Z,25.17
2024-03-07T07:13:40.135Z,22.27
2024-03-07T07:16:07.090Z,23.60
2024-03-07T07:18:33.804Z,20.75
2024-03-07T07:21:00.895Z,22.75
2024-03-07T07:23:28.046Z,26.10
2024-03-07T07:25:54.638Z,34.65
2024-03-07T07:28:21.250Z,31.92
2024-03-07T07:30:47.826Z,24.70
2024-03-07T07:33:15.408Z,27.35
2024-03-07T07:35:42.618Z,24.15
2024-03-07T07:38:11.806Z,22.25
2024-03-07T07:40:39.063Z,26.70
2024-03-07T07:43:05.959Z,26.15
2024-03-07T07:45:34.206Z,26.98
2024-03-07T07:48:01.219Z,20.58
2024-03-07T07:50:29.182Z,24.90
2024-03-07T07:53:00.010Z,21.13
2024-03-07T07:55:30.402Z,28.42
2024-03-07T07:58:01.255Z,28.08
2024-03-07T08:00:32.946Z,25.30
2024-03-07T08:03:05.055Z,23.90
2024-03-07T08:05:34.189Z,23.70
2024-03-07T08:08:07.333Z,28.52
2024-03-07T08:10:35.914Z,21.45
2024-03-07T08:13:04.390Z,27.40
2024-03-07T08:15:32.227Z,21.45
2024-03-07T08:18:00.418Z,27.45
2024-03-07T08:20:28.559Z,22.17
2024-03-07T08:22:56.980Z,20.33
2024-03-07T08:25:26.076Z,23.50
2024-03-07T08:27:55.238Z,19.63
2024-03-07T08:30:22.031Z,24.48
2024-03-07T08:32:53.107Z,29.13
2024-03-07T08:35:20.469Z,23.27
2024-03-07T08:37:54.967Z,23.92
2024-03-07T08:40:27.393Z,29.25
2024-03-07T08:42:55.694Z,23.48
2024-03-07T08:45:22.331Z,21.67
2024-03-07T08:47:50.800Z,15.10
2024-03-07T08:50:21.563Z,20.83
2024-03-07T08:52:49.449Z,20.75
2024-03-07T08:55:17.976Z,24.27
2024-03-07T08:57:47.145Z,19.90
2024-03-07T09:00:23.980Z,15.73
2024-03-07T09:02:56.128Z,18.27
2024-03-07T09:05:24.940Z,19.13
2024-03-07T09:07:53.729Z,22.05
2024-03-07T09:10:21.839Z,20.15
2024-03-07T09:12:52.948Z,17.40
2024-03-07T09:15:22.771Z,21.27
2024-03-07T09:17:50.027Z,23.30
2024-03-07T09:20:17.119Z,23.83
2024-03-07T09:22:48.756Z,23.90
2024-03-07T09:25:17.669Z,15.67
2024-03-07T09:27:44.552Z,19.08
2024-03-07T09:30:20.234Z,20.38
2024-03-07T09:32:47.232Z,22.08
2024-03-07T09:35:15.090Z,19.65
2024-03-07T09:37:42.731Z,20.80
2024-03-07T09:40:11.297Z,21.88
2024-03-07T09:42:50.174Z,17.02
2024-03-07T09:45:19.767Z,18.98
2024-03-07T09:47:49.738Z,18.85
2024-03-07T09:50:23.571Z,17.00
2024-03-07T09:52:53.871Z,16.00
2024-03-07T09:55:22.921Z,17.80
2024-03-07T09:57:51.539Z,16.10
2024-03-07T10:00:27.888Z,18.98
2024-03-07T10:03:03.303Z,17.90
2024-03-07T10:05:32.119Z,19.00
2024-03-07T10:08:00.334Z,16.25
2024-03-07T10:10:27.432Z,17.60
2024-03-07T10:12:59.677Z,17.70
2024-03-07T10:15:34.146Z,17.10
2024-03-07T10:18:02.699Z,14.98
2024-03-07T10:20:29.964Z,13.02
2024-03-07T10:22:58.008Z,13.00
2024-03-07T10:25:29.956Z,13.18
2024-03-07T10:27:58.945Z,13.47
2024-03-07T10:30:26.547Z,14.02
2024-03-07T10:32:56.624Z,13.75
2024-03-07T10:35:26.269Z,14.65
2024-03-07T10:37:56.963Z,13.55
2024-03-07T10:40:28.235Z,11.97
2024-03-07T10:42:59.636Z,9.90
2024-03-07T10:45:30.336Z,12.45
2024-03-07T10:47:58.784Z,13.15
2024-03-07T10:50:44.208Z,13.35
2024-03-07T10:53:27.073Z,11.20
2024-03-07T10:56:19.452Z,13.57
2024-03-07T10:58:54.523Z,11.88
2024-03-07T11:01:21.910Z,12.50
2024-03-07T11:03:53.383Z,12.13
2024-03-07T11:06:21.503Z,12.60
2024-03-07T11:08:48.780Z,13.00
2024-03-07T11:11:15.618Z,13.52
2024-03-07T11:13:43.239Z,13.65
2024-03-07T11:16:11.209Z,10.48
2024-03-07T11:18:37.946Z,14.30
2024-03-07T11:21:09.000Z,10.10
2024-03-07T11:23:42.487Z,12.23
2024-03-07T11:26:11.492Z,14.07
2024-03-07T11:28:40.210Z,13.43
2024-03-07T11:31:10.476Z,11.47
2024-03-07T11:33:41.645Z,10.40
2024-03-07T11:36:15.111Z,12.48
2024-03-07T11:38:51.545Z,12.35
2024-03-07T11:41:20.414Z,12.23
2024-03-07T11:43:47.903Z,12.40
2024-03-07T11:46:18.444Z,11.13
2024-03-07T11:48:45.676Z,12.45
2024-03-07T11:51:18.730Z,12.10
2024-03-07T11:53:49.109Z,11.45
2024-03-07T11:56:17.644Z,11.43
2024-03-07T11:58:45.852Z,11.50
2024-03-07T12:01:15.314Z,12.63
2024-03-07T12:03:42.381Z,12.07
2024-03-07T12:06:13.847Z,12.27
2024-03-07T12:08:43.297Z,11.77
2024-03-07T12:11:14.108Z,9.13
2024-03-07T12:13:41.989Z,10.68
2024-03-07T12:16:09.533Z,9.70
2024-03-07T12:18:37.651Z,10.70
2024-03-07T12:21:08.041Z,11.13
2024-03-07T12:23:35.000Z,8.73
2024-03-07T12:26:03.299Z,11.30
2024-03-07T12:28:34.570Z,11.85
2024-03-07T12:31:03.606Z,10.40
2024-03-07T12:33:32.806Z,11.57
2024-03-07T12:36:11.556Z,10.57
2024-03-07T12:38:39.774Z,10.20
2024-03-07T12:41:15.324Z,10.25
2024-03-07T12:43:43.667Z,13.00
2024-03-07T12:46:14.894Z,10.07
2024-03-07T12:48:42.082Z,13.07
2024-03-07T12:51:10.772Z,11.23
2024-03-07T12:53:38.431Z,12.55
2024-03-07T12:56:05.270Z,10.82
2024-03-07T12:58:32.090Z,11.37
2024-03-07T13:00:59.331Z,11.90
2024-03-07T13:03:32.970Z,9.40
2024-03-07T13:06:03.515Z,12.02
2024-03-07T13:08:33.168Z,11.73
2024-03-07T13:11:01.049Z,10.70
2024-03-07T13:13:28.483Z,11.75
2024-03-07T13:15:56.261Z,9.52
2024-03-07T13:18:23.440Z,11.02
2024-03-07T13:20:50.734Z,11.55
2024-03-07T13:23:17.330Z,12.53
2024-03-07T13:25:45.332Z,11.65
2024-03-07T13:28:25.407Z,12.68
2024-03-07T13:30:55.593Z,10.52
2024-03-07T13:33:22.419Z,11.43
2024-03-07T13:35:49.646Z,9.10
2024-03-07T13:38:16.830Z,12.50
2024-03-07T13:40:43.586Z,10.73
2024-03-07T13:43:10.304Z,10.20
2024-03-07T13:45:42.222Z,9.25
2024-03-07T13:48:11.722Z,12.10
2024-03-07T13:50:57.119Z,9.88
2024-03-07T13:53:29.439Z,11.18
2024-03-07T13:56:14.963Z,12.32
2024-03-07T13:58:56.681Z,11.20
2024-03-07T14:01:39.826Z,10.17
2024-03-07T14:04:21.310Z,10.75
2024-03-07T14:06:49.500Z,10.50
2024-03-07T14:09:31.070Z,12.63
2024-03-07T14:12:39.212Z,13.77
2024-03-07T14:15:26.076Z,11.27
2024-03-07T14:18:41.297Z,10.43
2024-03-07T14:21:36.367Z,14.25
2024-03-07T14:24:41.564Z,12.77
2024-03-07T14:27:11.144Z,14.60
2024-03-07T14:30:27.433Z,14.17
2024-03-07T14:32:59.949Z,15.27
2024-03-07T14:35:34.901Z,14.65
2024-03-07T14:38:26.617Z,13.40
2024-03-07T14:40:53.680Z,13.77
2024-03-07T14:43:21.480Z,13.27
2024-03-07T14:45:48.231Z,16.08
2024-03-07T14:48:19.101Z,13.35
2024-03-07T14:50:48.337Z,12.68
2024-03-07T14:53:18.877Z,12.90
2024-03-07T14:55:45.969Z,15.10
2024-03-07T14:58:13.883Z,13.43
2024-03-07T15:00:49.671Z,15.55
2024-03-07T15:03:23.615Z,13.50
2024-03-07T15:05:50.364Z,16.77
2024-03-07T15:08:17.709Z,16.17
2024-03-07T15:10:55.869Z,15.80
2024-03-07T15:13:22.794Z,13.80
2024-03-07T15:15:49.466Z,16.42
2024-03-07T15:18:16.412Z,13.20
2024-03-07T15:20:43.561Z,15.23
2024-03-07T15:23:10.186Z,14.52
2024-03-07T15:25:37.909Z,14.85
2024-03-07T15:28:04.979Z,15.93
2024-03-07T15:30:37.647Z,13.18
2024-03-07T15:33:05.975Z,12.37
2024-03-07T15:35:34.309Z,14.30
2024-03-07T15:38:01.503Z,13.52
2024-03-07T15:40:28.949Z,13.05
2024-03-07T15:43:02.688Z,12.38
2024-03-07T15:45:30.564Z,13.13
2024-03-07T15:48:00.009Z,12.88
2024-03-07T15:50:30.915Z,11.35
2024-03-07T15:53:01.195Z,10.15
2024-03-07T15:55:29.743Z,10.80
2024-03-07T15:57:57.626Z,11.95
2024-03-07T16:00:26.411Z,12.20
2024-03-07T16:03:00.762Z,12.88
2024-03-07T16:05:29.822Z,13.05
2024-03-07T16:07:57.824Z,8.82
2024-03-07T16:10:27.820Z,9.13
2024-03-07T16:12:55.040Z,10.93
2024-03-07T16:15:35.563Z,10.57
2024-03-07T16:18:09.606Z,10.63
2024-03-07T16:20:36.942Z,8.52
2024-03-07T16:23:07.154Z,9.63
2024-03-07T16:25:39.142Z,10.80
2024-03-07T16:28:07.828Z,11.73
2024-03-07T16:30:35.112Z,12.05
2024-03-07T16:33:02.097Z,12.25
2024-03-07T16:35:34.087Z,10.77
2024-03-07T16:38:01.372Z,11.85
2024-03-07T16:40:29.868Z,11.20
2024-03-07T16:43:02.137Z,11.65
2024-03-07T16:45:30.894Z,11.75
2024-03-07T16:48:02.169Z,9.43
2024-03-07T16:50:33.377Z,11.27
2024-03-07T16:53:06.766Z,12.20
2024-03-07T16:55:40.434Z,10.10
2024-03-07T16:58:14.573Z,10.25
2024-03-07T17:00:43.958Z,12.40
2024-03-07T17:03:13.361Z,11.35
2024-03-07T17:05:42.647Z,9.30
2024-03-07T17:08:15.484Z,11.05
2024-03-07T17:10:44.776Z,10.48
2024-03-07T17:13:13.620Z,12.68
2024-03-07T17:15:41.254Z,9.52
2024-03-07T17:18:11.659Z,9.52
2024-03-07T17:20:40.159Z,12.48
2024-03-07T17:23:07.116Z,11.20
2024-03-07T17:25:34.294Z,5.85
2024-03-07T17:28:01.610Z,12.93
2024-03-07T17:30:32.871Z,12.38
2024-03-07T17:33:00.933Z,11.13
2024-03-07T17:35:30.171Z,9.75
2024-03-07T17:37:58.097Z,11.18
2024-03-07T17:40:28.476Z,12.90
2024-03-07T17:42:56.468Z,10.85
2024-03-07T17:45:29.231Z,11.02
2024-03-07T17:47:58.917Z,10.82
2024-03-07T17:50:27.626Z,8.07
2024-03-07T17:53:02.038Z,10.32
2024-03-07T17:55:33.434Z,11.73
2024-03-07T17:58:02.875Z,11.63
2024-03-07T18:00:30.112Z,11.80
2024-03-07T18:02:59.395Z,11.75
2024-03-07T18:05:37.942Z,12.23
2024-03-07T18:08:22.407Z,10.32
2024-03-07T18:10:57.551Z,14.95
2024-03-07T18:13:24.626Z,12.20
2024-03-07T18:15:51.357Z,10.52
2024-03-07T18:18:18.756Z,12.88
2024-03-07T18:20:46.970Z,10.65
2024-03-07T18:23:14.567Z,12.98
2024-03-07T18:25:42.499Z,11.17
2024-03-07T18:28:10.132Z,12.93
2024-03-07T18:30:36.883Z,14.50
2024-03-07T18:33:05.928Z,11.38
2024-03-07T18:35:37.938Z,11.00
2024-03-07T18:38:07.831Z,15.37
2024-03-07T18:40:37.560Z,14.55
2024-03-07T18:43:13.413Z,14.13
2024-03-07T18:45:45.679Z,15.40
2024-03-07T18:48:13.963Z,16.05
2024-03-07T18:50:48.961Z,15.10
2024-03-07T18:53:20.729Z,15.13
2024-03-07T18:55:49.861Z,15.30
2024-03-07T18:58:18.300Z,12.85
2024-03-07T19:00:45.699Z,14.75
2024-03-07T19:03:16.394Z,15.47
2024-03-07T19:05:47.102Z,16.88
2024-03-07T19:08:21.450Z,12.77
2024-03-07T19:10:49.660Z,16.70
2024-03-07T19:13:18.421Z,14.68
2024-03-07T19:15:45.763Z,15.37
2024-03-07T19:18:15.520Z,14.02
2024-03-07T19:20:48.933Z,12.85
2024-03-07T19:23:18.512Z,13.13
2024-03-07T19:25:46.142Z,11.75
2024-03-07T19:28:16.123Z,9.70
2024-03-07T19:30:51.538Z,13.73
2024-03-07T19:33:19.898Z,13.77
2024-03-07T19:35:49.294Z,13.85
2024-03-07T19:38:16.535Z,12.38
2024-03-07T19:40:43.667Z,15.57
2024-03-07T19:43:11.031Z,12.95
2024-03-07T19:45:42.173Z,14.57
2024-03-07T19:48:13.495Z,14.13
2024-03-07T19:50:43.146Z,12.57
2024-03-07T19:53:16.397Z,12.13
2024-03-07T19:55:46.120Z,13.68
2024-03-07T19:58:14.285Z,12.20
2024-03-07T20:00:45.870Z,11.75
2024-03-07T20:03:21.504Z,11.63
2024-03-07T20:05:54.040Z,11.93
2024-03-07T20:08:22.474Z,12.43
2024-03-07T20:10:51.087Z,12.32
2024-03-07T20:13:19.384Z,12.93
2024-03-07T20:15:46.494Z,13.57
2024-03-07T20:18:14.267Z,15.70
2024-03-07T20:20:45.284Z,15.40
2024-03-07T20:23:14.929Z,13.85
2024-03-07T20:25:42.990Z,12.57
2024-03-07T20:28:09.914Z,13.15
2024-03-07T20:30:36.928Z,13.17
2024-03-07T20:33:04.579Z,15.25
2024-03-07T20:35:32.697Z,13.68
2024-03-07T20:38:02.917Z,12.93
2024-03-07T20:40:29.862Z,16.05
2024-03-07T20:42:58.996Z,11.53
2024-03-07T20:45:25.799Z,12.27
2024-03-07T20:47:52.718Z,14.48
2024-03-07T20:50:28.872Z,11.40
2024-03-07T20:52:55.465Z,11.27
2024-03-07T20:55:28.340Z,12.37
2024-03-07T20:57:57.279Z,12.23
2024-03-07T21:00:25.446Z,13.30
2024-03-07T21:02:54.042Z,11.80
2024-03-07T21:05:21.756Z,14.05
2024-03-07T21:07:50.256Z,13.47
2024-03-07T21:10:20.808Z,11.68
2024-03-07T21:12:48.582Z,14.38
2024-03-07T21:15:16.561Z,11.73
2024-03-07T21:17:43.618Z,12.40
2024-03-07T21:20:14.543Z,11.77
2024-03-07T21:22:42.559Z,13.02
2024-03-07T21:25:14.016Z,12.70
2024-03-07T21:27:41.979Z,10.30
2024-03-07T21:30:10.764Z,13.05
2024-03-07T21:32:40.571Z,9.57
2024-03-07T21:35:12.799Z,11.27
2024-03-07T21:37:41.987Z,11.75
2024-03-07T21:40:09.534Z,8.70
2024-03-07T21:42:36.161Z,12.45
2024-03-07T21:45:02.987Z,11.80
2024-03-07T21:47:29.673Z,9.30
2024-03-07T21:49:59.286Z,10.05
2024-03-07T21:52:26.486Z,9.50
2024-03-07T21:54:53.093Z,14.05
2024-03-07T21:57:19.735Z,14.63
2024-03-07T21:59:46.369Z,13.60
2024-03-07T22:02:16.184Z,14.18
2024-03-07T22:07:16.151Z,12.93
2024-03-07T22:09:45.567Z,14.48
2024-03-07T22:12:12.307Z,10.63
2024-03-07T22:14:40.843Z,13.02
2024-03-07T22:17:07.892Z,15.35
2024-03-07T22:19:37.773Z,12.90
2024-03-07T22:22:07.437Z,11.38
2024-03-07T22:24:34.109Z,15.18
2024-03-07T22:27:01.482Z,11.98
2024-03-07T22:29:28.356Z,13.05
2024-03-07T22:31:55.041Z,11.85
2024-03-07T22:34:21.630Z,9.73
2024-03-07T22:36:51.498Z,13.63
2024-03-07T22:39:20.640Z,9.75
2024-03-07T22:41:47.673Z,16.50
2024-03-07T22:44:14.693Z,15.13
2024-03-07T22:46:41.601Z,15.15
2024-03-07T22:49:08.893Z,12.05
2024-03-07T22:51:35.621Z,15.00
2024-03-07T22:54:02.409Z,14.23
2024-03-07T22:56:29.042Z,12.55
2024-03-07T22:58:59.879Z,13.23
2024-03-07T23:01:33.244Z,15.07
2024-03-07T23:04:01.127Z,13.50
2024-03-07T23:06:32.903Z,16.48
2024-03-07T23:09:00.264Z,16.33
2024-03-07T23:11:26.981Z,14.95
2024-03-07T23:13:53.632Z,15.18
2024-03-07T23:16:20.230Z,12.98
2024-03-07T23:18:48.110Z,17.08
2024-03-07T23:21:14.946Z,16.42
2024-03-07T23:23:42.768Z,17.70
2024-03-07T23:26:09.951Z,18.42
2024-03-07T23:28:37.163Z,17.58
2024-03-07T23:31:05.181Z,15.55
2024-03-07T23:33:31.980Z,15.75
2024-03-07T23:35:58.599Z,14.70
2024-03-07T23:38:25.395Z,18.15
2024-03-07T23:40:52.100Z,15.60
2024-03-07T23:43:21.184Z,17.45
2024-03-07T23:45:48.651Z,17.33
2024-03-07T23:48:15.404Z,16.80
2024-03-07T23:50:42.714Z,14.35
2024-03-07T23:53:09.397Z,13.05
2024-03-07T23:55:37.251Z,14.27
2024-03-07T23:58:03.989Z,15.18
